Time;durP1;ratioP1;P1;durP2;ratioP2;P2;SDS_P1;SDS_P2;PMS_P1;PMS_P2;Temp;Humidity;BMP_temperature;BMP_pressure;BME280_temperature;BME280_humidity;BME280_pressure;Samples;Min_cycle;Max_cycle;Signal;HPM_P1;HPM_P2
2021/01/18 00:01:25;;;;;;;3.77;3.00;;;;;;;;;;5108987;28;20439;-67
2021/01/18 00:03:52;;;;;;;4.90;2.80;;;;;;;;;;5100663;27;20454;-68
2021/01/18 00:06:19;;;;;;;4.77;3.10;;;;;;;;;;5100962;28;20927;-67
2021/01/18 00:08:46;;;;;;;8.60;3.87;;;;;;;;;;5093329;28;20448;-67
2021/01/18 00:11:13;;;;;;;4.57;3.70;;;;;;;;;;5100412;28;20475;-67
2021/01/18 00:13:41;;;;;;;5.80;3.60;;;;;;;;;;5102543;27;20478;-67
2021/01/18 00:16:07;;;;;;;5.80;3.30;;;;;;;;;;5109396;28;20466;-68
2021/01/18 00:18:34;;;;;;;4.50;3.33;;;;;;;;;;5098083;27;20443;-68
2021/01/18 00:21:01;;;;;;;4.07;3.00;;;;;;;;;;5103036;27;20848;-68
2021/01/18 00:23:27;;;;;;;7.13;2.97;;;;;;;;;;5111843;27;20493;-67
2021/01/18 00:25:54;;;;;;;4.10;3.37;;;;;;;;;;5096213;28;20476;-68
2021/01/18 00:28:21;;;;;;;6.37;3.27;;;;;;;;;;5106873;28;20447;-68
2021/01/18 00:30:48;;;;;;;6.90;3.50;;;;;;;;;;5106567;28;21017;-69
2021/01/18 00:33:15;;;;;;;5.77;3.27;;;;;;;;;;5099975;28;20455;-68
2021/01/18 00:35:41;;;;;;;6.07;4.13;;;;;;;;;;5101231;28;21002;-67
2021/01/18 00:38:08;;;;;;;6.60;4.00;;;;;;;;;;5107347;28;20447;-68
2021/01/18 00:40:35;;;;;;;5.33;3.80;;;;;;;;;;5103088;27;20467;-68
2021/01/18 00:43:01;;;;;;;5.43;3.47;;;;;;;;;;5101556;27;20467;-67
2021/01/18 00:45:28;;;;;;;6.10;3.93;;;;;;;;;;5112150;27;21055;-68
2021/01/18 00:47:56;;;;;;;5.10;3.50;;;;;;;;;;5103255;28;20454;-67
2021/01/18 00:50:23;;;;;;;5.73;4.07;;;;;;;;;;5104857;28;20479;-68
2021/01/18 00:52:52;;;;;;;8.10;3.87;;;;;;;;;;5099400;28;20454;-68
2021/01/18 00:55:19;;;;;;;4.83;3.60;;;;;;;;;;5103792;28;20440;-68
2021/01/18 00:57:46;;;;;;;5.90;3.73;;;;;;;;;;5107087;28;20857;-68
2021/01/18 01:00:14;;;;;;;7.87;4.37;;;;;;;;;;5102508;28;20512;-68
2021/01/18 01:02:42;;;;;;;5.47;3.77;;;;;;;;;;5103283;28;20480;-67
2021/01/18 01:05:10;;;;;;;5.80;4.10;;;;;;;;;;5100049;27;20500;-68
2021/01/18 01:07:37;;;;;;;11.80;4.00;;;;;;;;;;5099153;27;20502;-68
2021/01/18 01:10:05;;;;;;;6.10;3.70;;;;;;;;;;5097726;28;20471;-68
2021/01/18 01:12:31;;;;;;;5.23;3.80;;;;;;;;;;5100297;27;21022;-68
2021/01/18 01:14:58;;;;;;;6.87;4.80;;;;;;;;;;5099498;28;20459;-67
2021/01/18 01:17:24;;;;;;;6.17;4.83;;;;;;;;;;5099314;28;20447;-68
2021/01/18 01:19:51;;;;;;;8.37;4.60;;;;;;;;;;5098400;28;20463;-67
2021/01/18 01:22:18;;;;;;;6.77;4.57;;;;;;;;;;5106705;28;20459;-67
2021/01/18 01:24:45;;;;;;;4.77;3.60;;;;;;;;;;5105268;28;20471;-67
2021/01/18 01:27:12;;;;;;;5.70;4.60;;;;;;;;;;5097907;28;20460;-67
2021/01/18 01:29:38;;;;;;;6.00;4.50;;;;;;;;;;5097880;28;21054;-67
2021/01/18 01:32:05;;;;;;;6.27;4.20;;;;;;;;;;5104300;28;20440;-68
2021/01/18 01:34:33;;;;;;;6.90;4.30;;;;;;;;;;5096115;28;20877;-68
2021/01/18 01:36:59;;;;;;;5.83;3.40;;;;;;;;;;5109452;28;20813;-68
2021/01/18 01:39:27;;;;;;;5.23;3.97;;;;;;;;;;5106769;28;20463;-67
2021/01/18 01:41:53;;;;;;;8.40;4.57;;;;;;;;;;5115714;27;20461;-67
2021/01/18 01:44:20;;;;;;;5.27;4.40;;;;;;;;;;5116372;27;20834;-68
2021/01/18 01:46:47;;;;;;;6.17;4.10;;;;;;;;;;5114199;27;20461;-67
2021/01/18 01:49:14;;;;;;;5.30;3.73;;;;;;;;;;5107395;27;20459;-67
2021/01/18 01:51:40;;;;;;;5.53;4.77;;;;;;;;;;5109296;27;20822;-67
2021/01/18 01:54:07;;;;;;;4.80;4.10;;;;;;;;;;5108733;28;20937;-67
2021/01/18 01:56:35;;;;;;;5.73;4.70;;;;;;;;;;5104159;27;20471;-67
2021/01/18 01:59:02;;;;;;;6.90;4.50;;;;;;;;;;5106683;27;20459;-67
2021/01/18 02:01:29;;;;;;;8.40;4.37;;;;;;;;;;5108568;27;20469;-67
2021/01/18 02:03:58;;;;;;;7.27;5.17;;;;;;;;;;5110336;27;20458;-67
2021/01/18 02:06:24;;;;;;;8.23;5.53;;;;;;;;;;5107060;28;20458;-68
2021/01/18 02:08:51;;;;;;;7.40;4.90;;;;;;;;;;5102658;28;20443;-68
2021/01/18 02:11:19;;;;;;;8.43;5.00;;;;;;;;;;5104431;27;20561;-67
2021/01/18 02:14:01;;;;;;;8.10;5.47;;;;;;;;;;5107667;28;20502;-67
2021/01/18 02:16:29;;;;;;;6.90;4.83;;;;;;;;;;5107057;27;20853;-67
2021/01/18 02:19:19;;;;;;;7.63;5.03;;;;;;;;;;5101510;28;20457;-67
2021/01/18 02:22:04;;;;;;;7.83;5.47;;;;;;;;;;5112809;27;20453;-68
2021/01/18 02:24:48;;;;;;;6.57;4.70;;;;;;;;;;5070592;28;20488;-67
2021/01/18 02:27:30;;;;;;;10.07;5.60;;;;;;;;;;5103870;27;20455;-67
2021/01/18 02:30:09;;;;;;;9.60;4.93;;;;;;;;;;5099697;27;20478;-67
2021/01/18 02:32:54;;;;;;;7.70;5.70;;;;;;;;;;5108347;28;21142;-68
2021/01/18 02:35:45;;;;;;;10.27;6.63;;;;;;;;;;5103830;28;20452;-67
2021/01/18 02:38:15;;;;;;;9.37;6.40;;;;;;;;;;5089047;27;20456;-67
2021/01/18 02:40:48;;;;;;;8.20;5.20;;;;;;;;;;5107126;28;20468;-67
2021/01/18 02:43:16;;;;;;;9.77;5.10;;;;;;;;;;5114380;27;21085;-67
2021/01/18 02:45:43;;;;;;;7.60;5.37;;;;;;;;;;5108084;27;20490;-67
2021/01/18 02:48:11;;;;;;;8.90;5.40;;;;;;;;;;5111651;27;20449;-67
2021/01/18 02:50:39;;;;;;;7.27;5.63;;;;;;;;;;5102594;27;20548;-67
2021/01/18 02:53:05;;;;;;;7.93;5.97;;;;;;;;;;5111454;27;20517;-68
2021/01/18 02:55:33;;;;;;;10.00;6.20;;;;;;;;;;5106201;28;20966;-67
2021/01/18 02:58:02;;;;;;;10.53;6.43;;;;;;;;;;5111209;27;20519;-67
2021/01/18 03:00:31;;;;;;;9.97;6.10;;;;;;;;;;5109220;28;20467;-67
2021/01/18 03:03:01;;;;;;;11.70;6.27;;;;;;;;;;5113996;27;20439;-67
2021/01/18 03:05:31;;;;;;;8.27;5.67;;;;;;;;;;5105235;28;20823;-67
2021/01/18 03:08:02;;;;;;;8.60;5.43;;;;;;;;;;5105681;27;20447;-67
2021/01/18 03:10:33;;;;;;;8.47;5.67;;;;;;;;;;5099817;28;20551;-67
2021/01/18 03:13:02;;;;;;;8.77;6.03;;;;;;;;;;5101878;27;20563;-67
2021/01/18 03:15:31;;;;;;;9.03;6.47;;;;;;;;;;5102675;28;20444;-67
2021/01/18 03:17:59;;;;;;;9.10;6.27;;;;;;;;;;5096205;27;20820;-67
2021/01/18 03:20:26;;;;;;;8.80;6.20;;;;;;;;;;5102372;27;20487;-67
2021/01/18 03:22:52;;;;;;;19.13;7.60;;;;;;;;;;5108377;27;20447;-67
2021/01/18 03:25:19;;;;;;;10.53;5.73;;;;;;;;;;5106623;27;20842;-67
2021/01/18 03:27:50;;;;;;;9.50;6.90;;;;;;;;;;5098509;28;20456;-67
2021/01/18 03:30:18;;;;;;;10.43;6.73;;;;;;;;;;5102553;27;20950;-68
2021/01/18 03:32:47;;;;;;;10.97;6.43;;;;;;;;;;5110000;27;20450;-67
2021/01/18 03:35:14;;;;;;;12.73;7.10;;;;;;;;;;5101532;27;20963;-68
2021/01/18 03:37:41;;;;;;;11.53;6.73;;;;;;;;;;5111068;28;20584;-67
2021/01/18 03:40:08;;;;;;;13.53;6.50;;;;;;;;;;5096453;27;22401;-68
2021/01/18 03:42:34;;;;;;;10.30;6.30;;;;;;;;;;5093526;27;20463;-67
2021/01/18 03:45:01;;;;;;;12.53;6.23;;;;;;;;;;5103383;28;20472;-67
2021/01/18 03:47:28;;;;;;;12.77;7.30;;;;;;;;;;5105079;27;20451;-67
2021/01/18 03:49:55;;;;;;;10.60;6.83;;;;;;;;;;5107385;27;20475;-66
2021/01/18 03:52:22;;;;;;;9.13;6.50;;;;;;;;;;5109268;27;20447;-67
2021/01/18 03:54:48;;;;;;;12.53;6.63;;;;;;;;;;5107816;27;20449;-66
2021/01/18 03:57:15;;;;;;;8.90;6.10;;;;;;;;;;5103797;28;20455;-66
2021/01/18 03:59:41;;;;;;;10.13;6.47;;;;;;;;;;5103917;28;20520;-66
2021/01/18 04:02:08;;;;;;;11.90;6.67;;;;;;;;;;5105651;28;20865;-67
2021/01/18 04:04:36;;;;;;;10.50;7.20;;;;;;;;;;5111991;27;20538;-67
2021/01/18 04:07:02;;;;;;;9.53;6.43;;;;;;;;;;5106653;27;20470;-67
2021/01/18 04:09:29;;;;;;;13.90;7.53;;;;;;;;;;5102073;27;20490;-67
2021/01/18 04:11:55;;;;;;;8.53;5.77;;;;;;;;;;5104747;28;20455;-67
2021/01/18 04:14:22;;;;;;;16.20;6.70;;;;;;;;;;5102199;27;20906;-67
2021/01/18 04:16:48;;;;;;;10.53;6.50;;;;;;;;;;5107270;28;20458;-67
2021/01/18 04:19:15;;;;;;;10.07;5.60;;;;;;;;;;5103981;27;20871;-67
2021/01/18 04:21:42;;;;;;;14.77;7.70;;;;;;;;;;5106412;27;20460;-67
2021/01/18 04:24:09;;;;;;;10.13;6.77;;;;;;;;;;5101935;27;20447;-67
2021/01/18 04:26:38;;;;;;;12.53;6.37;;;;;;;;;;5102015;27;20454;-67
2021/01/18 04:29:05;;;;;;;15.43;6.80;;;;;;;;;;5097973;28;20463;-67
2021/01/18 04:31:32;;;;;;;12.77;7.00;;;;;;;;;;5103342;27;20450;-67
2021/01/18 04:33:58;;;;;;;11.70;7.20;;;;;;;;;;5104283;28;20451;-67
2021/01/18 04:36:25;;;;;;;11.07;7.70;;;;;;;;;;5107111;27;20466;-67
2021/01/18 04:38:52;;;;;;;13.03;7.30;;;;;;;;;;5105915;28;20459;-67
2021/01/18 04:41:19;;;;;;;15.60;8.00;;;;;;;;;;5107832;27;20955;-67
2021/01/18 04:43:45;;;;;;;12.87;7.37;;;;;;;;;;5103467;28;20455;-67
2021/01/18 04:46:15;;;;;;;12.27;7.10;;;;;;;;;;5108123;27;20833;-67
2021/01/18 04:48:42;;;;;;;11.63;6.87;;;;;;;;;;5104434;27;20501;-67
2021/01/18 04:51:08;;;;;;;12.10;7.67;;;;;;;;;;5101769;28;20519;-67
2021/01/18 04:53:38;;;;;;;14.53;7.60;;;;;;;;;;5101786;28;20440;-67
2021/01/18 04:56:16;;;;;;;12.00;7.43;;;;;;;;;;5101733;28;20447;-67
2021/01/18 04:58:46;;;;;;;13.40;7.60;;;;;;;;;;5106829;27;20967;-67
2021/01/18 05:01:17;;;;;;;16.50;8.20;;;;;;;;;;5101466;28;20516;-67
2021/01/18 05:03:45;;;;;;;11.53;7.50;;;;;;;;;;5100523;28;20454;-67
2021/01/18 05:06:27;;;;;;;13.73;8.60;;;;;;;;;;5100686;28;20479;-67
2021/01/18 05:09:05;;;;;;;12.67;8.00;;;;;;;;;;5095585;28;20443;-67
2021/01/18 05:11:33;;;;;;;11.70;7.87;;;;;;;;;;5101831;28;20466;-67
2021/01/18 05:14:01;;;;;;;10.40;7.00;;;;;;;;;;5100956;28;20447;-68
2021/01/18 05:16:30;;;;;;;11.83;7.87;;;;;;;;;;5105281;27;20439;-67
2021/01/18 05:18:57;;;;;;;11.33;8.20;;;;;;;;;;5114222;27;20482;-68
2021/01/18 05:21:24;;;;;;;11.97;7.37;;;;;;;;;;5105361;27;20571;-68
2021/01/18 05:23:51;;;;;;;11.10;6.80;;;;;;;;;;5095777;28;20461;-67
2021/01/18 05:26:18;;;;;;;10.40;6.30;;;;;;;;;;5100961;28;20520;-67
2021/01/18 05:28:46;;;;;;;10.80;6.77;;;;;;;;;;5102088;28;20458;-67
2021/01/18 05:31:31;;;;;;;14.10;7.73;;;;;;;;;;5096269;28;20535;-67
2021/01/18 05:33:59;;;;;;;11.90;6.80;;;;;;;;;;5112658;28;20448;-67
2021/01/18 05:36:38;;;;;;;9.57;6.70;;;;;;;;;;5097732;28;20448;-67
2021/01/18 05:39:09;;;;;;;8.80;6.03;;;;;;;;;;5102783;28;20458;-68
2021/01/18 05:41:36;;;;;;;9.80;7.03;;;;;;;;;;5114622;22;20459;-70
2021/01/18 05:44:04;;;;;;;10.37;6.73;;;;;;;;;;5061377;28;20483;-70
2021/01/18 05:46:32;;;;;;;11.43;6.37;;;;;;;;;;5063945;28;20863;-70
2021/01/18 05:49:06;;;;;;;12.53;6.70;;;;;;;;;;5056962;28;20445;-70
2021/01/18 05:51:33;;;;;;;9.47;6.07;;;;;;;;;;5045230;28;20449;-70
2021/01/18 05:54:01;;;;;;;14.73;6.40;;;;;;;;;;5051469;28;20449;-70
2021/01/18 05:56:37;;;;;;;10.23;6.47;;;;;;;;;;5035139;28;20484;-70
2021/01/18 05:59:12;;;;;;;10.63;6.37;;;;;;;;;;5036801;28;20462;-70
2021/01/18 06:01:39;;;;;;;18.67;6.47;;;;;;;;;;5039790;28;20454;-70
2021/01/18 06:04:10;;;;;;;12.30;5.70;;;;;;;;;;5041560;28;20457;-71
2021/01/18 06:06:36;;;;;;;7.33;4.57;;;;;;;;;;5035811;28;20486;-71
2021/01/18 06:09:03;;;;;;;7.40;5.30;;;;;;;;;;5037773;28;20507;-71
2021/01/18 06:11:30;;;;;;;8.70;5.37;;;;;;;;;;5031793;28;20466;-70
2021/01/18 06:14:01;;;;;;;9.10;4.87;;;;;;;;;;5035895;28;20517;-71
2021/01/18 06:16:30;;;;;;;9.80;4.97;;;;;;;;;;5035473;28;20434;-70
2021/01/18 06:19:04;;;;;;;11.90;5.27;;;;;;;;;;5042136;28;20462;-71
2021/01/18 06:21:37;;;;;;;10.00;5.27;;;;;;;;;;5052309;28;20453;-70
2021/01/18 06:24:16;;;;;;;11.13;5.47;;;;;;;;;;5039491;28;20438;-70
2021/01/18 06:26:44;;;;;;;5.73;4.13;;;;;;;;;;5049797;28;20535;-71
2021/01/18 06:29:10;;;;;;;14.03;5.53;;;;;;;;;;5059034;28;20456;-70
2021/01/18 06:31:47;;;;;;;10.73;6.10;;;;;;;;;;5051238;28;20510;-71
2021/01/18 06:34:28;;;;;;;7.80;4.30;;;;;;;;;;5054132;28;20452;-71
2021/01/18 06:36:56;;;;;;;8.73;5.33;;;;;;;;;;5048737;28;20453;-70
2021/01/18 06:39:24;;;;;;;8.60;5.70;;;;;;;;;;5040263;28;21070;-71
2021/01/18 06:41:55;;;;;;;7.70;4.87;;;;;;;;;;5043263;28;20519;-72
2021/01/18 06:44:33;;;;;;;12.30;5.10;;;;;;;;;;5047897;28;20827;-71
2021/01/18 06:47:00;;;;;;;12.90;5.40;;;;;;;;;;5049796;28;20457;-71
2021/01/18 06:49:27;;;;;;;9.00;5.10;;;;;;;;;;5051335;28;20485;-70
2021/01/18 06:51:57;;;;;;;11.23;5.70;;;;;;;;;;5046147;28;20462;-70
2021/01/18 06:54:28;;;;;;;12.00;4.97;;;;;;;;;;5043045;28;20868;-69
2021/01/18 06:57:07;;;;;;;14.87;6.03;;;;;;;;;;5045116;28;20461;-69
2021/01/18 06:59:50;;;;;;;8.87;6.40;;;;;;;;;;5036907;28;20481;-69
2021/01/18 07:02:23;;;;;;;8.13;5.20;;;;;;;;;;5046652;28;20443;-69
2021/01/18 07:04:50;;;;;;;12.93;4.90;;;;;;;;;;5040942;28;20505;-69
2021/01/18 07:07:24;;;;;;;9.60;5.03;;;;;;;;;;5039068;28;20826;-69
2021/01/18 07:09:55;;;;;;;8.53;4.50;;;;;;;;;;5045349;28;20493;-69
2021/01/18 07:12:23;;;;;;;8.73;4.73;;;;;;;;;;5046640;28;20459;-69
2021/01/18 07:14:56;;;;;;;7.93;4.70;;;;;;;;;;5042351;28;20485;-69
2021/01/18 07:17:30;;;;;;;9.30;4.87;;;;;;;;;;5049883;28;20449;-69
2021/01/18 07:19:59;;;;;;;7.83;5.07;;;;;;;;;;5041165;28;20481;-70
2021/01/18 07:22:35;;;;;;;10.53;5.37;;;;;;;;;;5040278;28;20473;-70
2021/01/18 07:25:05;;;;;;;9.50;5.03;;;;;;;;;;5044868;28;20481;-69
2021/01/18 07:27:35;;;;;;;12.53;5.50;;;;;;;;;;5050608;28;20445;-70
2021/01/18 07:30:02;;;;;;;8.77;4.60;;;;;;;;;;5044895;28;20474;-69
2021/01/18 07:32:29;;;;;;;11.43;4.57;;;;;;;;;;5044105;28;20820;-69
2021/01/18 07:34:57;;;;;;;6.90;4.50;;;;;;;;;;5043470;28;20461;-69
2021/01/18 07:37:25;;;;;;;8.70;5.30;;;;;;;;;;5047670;28;20454;-70
2021/01/18 07:39:52;;;;;;;7.90;5.20;;;;;;;;;;5042991;28;21171;-69
2021/01/18 07:42:38;;;;;;;14.00;5.70;;;;;;;;;;5037132;28;20457;-70
2021/01/18 07:45:18;;;;;;;19.57;6.10;;;;;;;;;;5047874;28;20481;-70
2021/01/18 07:48:04;;;;;;;11.30;4.70;;;;;;;;;;5036572;28;20570;-70
2021/01/18 07:50:32;;;;;;;10.10;4.97;;;;;;;;;;5041990;28;20573;-69
2021/01/18 07:52:59;;;;;;;10.70;6.47;;;;;;;;;;5039229;28;20500;-69
2021/01/18 07:55:26;;;;;;;8.90;5.13;;;;;;;;;;5038446;28;20454;-70
2021/01/18 07:57:52;;;;;;;12.53;5.27;;;;;;;;;;5052215;28;20445;-70
2021/01/18 08:00:29;;;;;;;7.83;4.90;;;;;;;;;;5039956;28;20465;-71
2021/01/18 08:03:10;;;;;;;6.93;4.30;;;;;;;;;;5045567;28;20434;-70
2021/01/18 08:05:39;;;;;;;8.00;4.90;;;;;;;;;;5020782;28;21054;-70
2021/01/18 08:08:07;;;;;;;7.40;4.30;;;;;;;;;;5053438;28;20441;-70
2021/01/18 08:10:52;;;;;;;5.53;4.07;;;;;;;;;;5043844;28;20572;-70
2021/01/18 08:13:43;;;;;;;6.93;4.23;;;;;;;;;;5046833;28;20450;-69
2021/01/18 08:16:11;;;;;;;8.80;3.93;;;;;;;;;;5029480;28;20437;-70
2021/01/18 08:18:49;;;;;;;6.90;4.43;;;;;;;;;;5038657;28;20836;-70
2021/01/18 08:21:34;;;;;;;7.83;5.50;;;;;;;;;;5037866;28;20469;-70
2021/01/18 08:24:01;;;;;;;9.00;4.70;;;;;;;;;;5042501;28;20454;-70
2021/01/18 08:26:28;;;;;;;5.57;4.80;;;;;;;;;;5041877;28;20489;-70
2021/01/18 08:28:54;;;;;;;8.80;4.67;;;;;;;;;;5041664;28;20451;-71
2021/01/18 08:31:21;;;;;;;7.80;4.40;;;;;;;;;;5042083;28;20465;-69
2021/01/18 08:33:48;;;;;;;11.93;4.67;;;;;;;;;;5038639;28;20970;-72
2021/01/18 08:36:29;;;;;;;10.43;5.10;;;;;;;;;;5043964;28;20449;-70
2021/01/18 08:39:09;;;;;;;6.30;3.93;;;;;;;;;;5036936;28;21013;-71
2021/01/18 08:41:45;;;;;;;6.93;4.13;;;;;;;;;;5038108;28;20966;-71
2021/01/18 08:44:12;;;;;;;6.30;4.37;;;;;;;;;;5049361;28;20473;-70
2021/01/18 08:46:39;;;;;;;5.90;4.00;;;;;;;;;;5042528;28;20482;-71
2021/01/18 08:49:22;;;;;;;9.20;5.47;;;;;;;;;;5049264;28;20468;-70
2021/01/18 08:51:49;;;;;;;8.93;5.03;;;;;;;;;;5039305;28;20535;-71
2021/01/18 08:54:29;;;;;;;7.83;5.30;;;;;;;;;;5047743;28;20442;-72
2021/01/18 08:57:10;;;;;;;7.33;4.87;;;;;;;;;;5044423;28;20460;-71
2021/01/18 08:59:37;;;;;;;10.17;5.57;;;;;;;;;;5039867;28;20851;-73
2021/01/18 09:02:06;;;;;;;9.90;5.10;;;;;;;;;;5041143;28;20454;-70
2021/01/18 09:04:33;;;;;;;12.43;6.80;;;;;;;;;;5035969;28;20446;-71
2021/01/18 09:07:02;;;;;;;8.03;5.37;;;;;;;;;;5039594;28;20453;-70
2021/01/18 09:09:30;;;;;;;9.13;5.00;;;;;;;;;;5039448;28;20466;-70
2021/01/18 09:12:02;;;;;;;7.70;5.97;;;;;;;;;;5040006;28;20536;-71
2021/01/18 09:14:30;;;;;;;8.87;5.33;;;;;;;;;;5042289;28;20450;-71
2021/01/18 09:17:06;;;;;;;10.53;5.97;;;;;;;;;;5040498;28;20737;-70
2021/01/18 09:19:33;;;;;;;8.70;6.00;;;;;;;;;;5040040;28;20546;-71
2021/01/18 09:22:00;;;;;;;10.70;7.17;;;;;;;;;;5040244;28;20884;-70
2021/01/18 09:24:27;;;;;;;9.63;6.60;;;;;;;;;;5046661;28;20449;-70
2021/01/18 09:26:55;;;;;;;8.90;6.20;;;;;;;;;;5044017;28;20482;-72
2021/01/18 09:29:22;;;;;;;15.33;7.63;;;;;;;;;;5050248;28;20450;-70
2021/01/18 09:31:49;;;;;;;11.40;6.00;;;;;;;;;;5042369;28;20552;-70
2021/01/18 09:34:16;;;;;;;8.57;5.80;;;;;;;;;;5044743;28;20450;-70
2021/01/18 09:36:43;;;;;;;7.90;5.40;;;;;;;;;;5045636;28;20450;-70
2021/01/18 09:39:18;;;;;;;11.93;6.00;;;;;;;;;;5035597;28;20871;-70
2021/01/18 09:41:44;;;;;;;10.73;5.67;;;;;;;;;;5046583;28;20612;-70
2021/01/18 09:44:12;;;;;;;7.60;5.87;;;;;;;;;;5046209;28;20941;-71
2021/01/18 09:46:38;;;;;;;9.03;5.50;;;;;;;;;;5044119;28;20886;-70
2021/01/18 09:49:05;;;;;;;10.43;5.87;;;;;;;;;;5038951;28;20648;-70
2021/01/18 09:51:32;;;;;;;10.73;6.30;;;;;;;;;;5037072;28;20455;-71
2021/01/18 09:53:59;;;;;;;11.47;7.23;;;;;;;;;;5041551;28;20454;-71
2021/01/18 09:56:28;;;;;;;11.47;5.90;;;;;;;;;;5045668;28;20838;-70
2021/01/18 09:58:55;;;;;;;18.80;8.53;;;;;;;;;;5045737;28;20536;-70
2021/01/18 10:01:26;;;;;;;10.93;6.53;;;;;;;;;;5040819;28;20470;-71
2021/01/18 10:03:53;;;;;;;7.40;5.00;;;;;;;;;;5046791;28;20462;-69
2021/01/18 10:06:22;;;;;;;11.30;7.00;;;;;;;;;;5051396;28;20495;-69
2021/01/18 10:08:49;;;;;;;8.30;5.13;;;;;;;;;;5044754;28;20453;-71
2021/01/18 10:11:23;;;;;;;6.73;4.80;;;;;;;;;;5042488;28;20484;-69
2021/01/18 10:13:58;;;;;;;7.90;4.37;;;;;;;;;;5055403;28;21325;-70
2021/01/18 10:16:25;;;;;;;9.90;5.27;;;;;;;;;;5052635;28;20537;-70
2021/01/18 10:18:52;;;;;;;7.77;5.30;;;;;;;;;;5043716;28;20520;-71
2021/01/18 10:21:19;;;;;;;8.27;6.00;;;;;;;;;;5043082;28;20993;-71
2021/01/18 10:23:46;;;;;;;10.17;6.27;;;;;;;;;;5039051;28;20470;-71
2021/01/18 10:26:17;;;;;;;9.67;5.23;;;;;;;;;;5042510;28;20496;-71
2021/01/18 10:28:55;;;;;;;8.57;6.20;;;;;;;;;;5043597;28;20454;-71
2021/01/18 10:31:21;;;;;;;7.90;5.27;;;;;;;;;;5045028;28;20473;-72
2021/01/18 10:34:03;;;;;;;7.83;5.60;;;;;;;;;;5046270;28;21006;-72
2021/01/18 10:36:33;;;;;;;6.90;4.67;;;;;;;;;;5043235;28;20507;-71
2021/01/18 10:39:00;;;;;;;12.53;4.87;;;;;;;;;;5047930;28;20454;-71
2021/01/18 10:41:28;;;;;;;9.50;5.60;;;;;;;;;;5044635;28;20901;-71
2021/01/18 10:43:55;;;;;;;9.13;5.53;;;;;;;;;;5046899;28;20438;-71
2021/01/18 10:46:22;;;;;;;18.40;5.87;;;;;;;;;;5040885;28;20479;-72
2021/01/18 10:48:55;;;;;;;6.70;4.83;;;;;;;;;;5040988;28;20453;-71
2021/01/18 10:51:25;;;;;;;10.77;4.60;;;;;;;;;;5039644;28;20485;-71
2021/01/18 10:53:56;;;;;;;10.83;5.13;;;;;;;;;;5040793;28;20464;-72
2021/01/18 10:56:23;;;;;;;10.03;5.10;;;;;;;;;;5044676;28;20828;-71
2021/01/18 10:58:56;;;;;;;10.20;5.97;;;;;;;;;;5043704;28;20447;-72
2021/01/18 11:01:23;;;;;;;8.27;5.40;;;;;;;;;;5050178;28;20474;-70
2021/01/18 11:03:50;;;;;;;9.90;4.83;;;;;;;;;;5043363;28;21154;-70
2021/01/18 11:06:17;;;;;;;8.33;5.13;;;;;;;;;;5046766;28;20484;-73
2021/01/18 11:08:44;;;;;;;7.00;4.50;;;;;;;;;;5045896;28;20465;-71
2021/01/18 11:11:19;;;;;;;7.33;4.50;;;;;;;;;;5045380;28;20477;-69
2021/01/18 11:13:46;;;;;;;8.40;4.97;;;;;;;;;;5038686;28;20556;-69
2021/01/18 11:16:13;;;;;;;8.80;5.07;;;;;;;;;;5054622;28;20446;-72
2021/01/18 11:18:40;;;;;;;15.57;5.47;;;;;;;;;;5038444;28;20664;-70
2021/01/18 11:21:07;;;;;;;7.93;5.23;;;;;;;;;;5049211;28;21023;-70
2021/01/18 11:23:33;;;;;;;8.80;5.37;;;;;;;;;;5039992;28;20467;-71
2021/01/18 11:26:00;;;;;;;9.17;5.33;;;;;;;;;;5054758;28;20489;-70
2021/01/18 11:28:27;;;;;;;8.77;5.67;;;;;;;;;;5046825;28;20450;-70
2021/01/18 11:30:55;;;;;;;9.03;6.20;;;;;;;;;;5042267;28;20843;-76
2021/01/18 11:33:22;;;;;;;8.60;5.70;;;;;;;;;;5040036;28;20963;-72
2021/01/18 11:35:49;;;;;;;9.77;6.47;;;;;;;;;;5049495;28;20529;-68
2021/01/18 11:38:15;;;;;;;10.53;6.20;;;;;;;;;;5042896;28;20458;-68
2021/01/18 11:40:43;;;;;;;24.23;7.13;;;;;;;;;;5045039;28;20489;-68
2021/01/18 11:43:10;;;;;;;13.90;6.70;;;;;;;;;;5064849;22;20493;-65
2021/01/18 11:45:37;;;;;;;14.03;7.47;;;;;;;;;;5067807;28;20481;-65
2021/01/18 11:48:05;;;;;;;10.10;6.23;;;;;;;;;;5053926;28;20517;-65
2021/01/18 11:50:32;;;;;;;9.90;5.97;;;;;;;;;;5064460;28;20465;-65
2021/01/18 11:52:59;;;;;;;8.13;6.17;;;;;;;;;;5065324;28;20510;-66
2021/01/18 11:55:26;;;;;;;7.20;6.03;;;;;;;;;;5054381;28;20453;-66
2021/01/18 11:57:53;;;;;;;8.40;5.53;;;;;;;;;;5062185;28;20450;-66
2021/01/18 12:00:20;;;;;;;12.93;6.00;;;;;;;;;;5061158;28;20809;-66
2021/01/18 12:02:48;;;;;;;13.33;6.30;;;;;;;;;;5055441;28;20457;-66
2021/01/18 12:05:15;;;;;;;13.67;7.23;;;;;;;;;;5062361;28;21129;-66
2021/01/18 12:07:45;;;;;;;12.03;6.47;;;;;;;;;;5061902;28;20472;-66
2021/01/18 12:10:12;;;;;;;10.27;5.53;;;;;;;;;;5059996;28;20477;-66
2021/01/18 12:12:39;;;;;;;8.10;5.50;;;;;;;;;;5064889;28;20493;-66
2021/01/18 12:15:06;;;;;;;10.53;6.50;;;;;;;;;;5062159;28;20575;-67
2021/01/18 12:17:36;;;;;;;12.57;6.43;;;;;;;;;;5066720;28;20449;-66
2021/01/18 12:20:04;;;;;;;7.27;5.83;;;;;;;;;;5057209;28;20488;-66
2021/01/18 12:22:30;;;;;;;9.13;6.47;;;;;;;;;;5064261;28;20453;-66
2021/01/18 12:24:57;;;;;;;9.67;6.33;;;;;;;;;;5061895;28;20445;-66
2021/01/18 12:27:24;;;;;;;10.20;6.27;;;;;;;;;;5060653;28;20457;-66
2021/01/18 12:29:50;;;;;;;8.93;5.80;;;;;;;;;;5063143;28;20476;-65
2021/01/18 12:32:17;;;;;;;11.10;6.00;;;;;;;;;;5061151;28;20865;-65
2021/01/18 12:34:43;;;;;;;11.00;7.30;;;;;;;;;;5067401;28;20452;-66
2021/01/18 12:37:11;;;;;;;10.27;6.03;;;;;;;;;;5063793;28;20461;-66
2021/01/18 12:39:37;;;;;;;8.63;5.90;;;;;;;;;;5065926;28;20473;-65
2021/01/18 12:42:04;;;;;;;14.67;5.77;;;;;;;;;;5063421;28;20468;-65
2021/01/18 12:44:31;;;;;;;10.83;6.77;;;;;;;;;;5066381;28;21018;-66
2021/01/18 12:46:58;;;;;;;10.40;5.43;;;;;;;;;;5061245;28;20484;-65
2021/01/18 12:49:25;;;;;;;8.40;6.00;;;;;;;;;;5064256;28;20461;-65
2021/01/18 12:51:51;;;;;;;7.83;5.40;;;;;;;;;;5061126;28;20449;-65
2021/01/18 12:54:19;;;;;;;9.47;5.20;;;;;;;;;;5060818;28;20925;-66
2021/01/18 12:56:46;;;;;;;10.37;6.73;;;;;;;;;;5063907;28;20457;-65
2021/01/18 12:59:13;;;;;;;9.30;6.20;;;;;;;;;;5065730;28;20502;-65
2021/01/18 13:01:40;;;;;;;15.87;6.90;;;;;;;;;;5061299;28;20861;-66
2021/01/18 13:04:07;;;;;;;9.40;6.13;;;;;;;;;;5063147;28;20468;-65
2021/01/18 13:06:36;;;;;;;9.80;6.67;;;;;;;;;;5062767;28;20480;-66
2021/01/18 13:09:03;;;;;;;6.80;4.50;;;;;;;;;;5063691;28;20449;-66
2021/01/18 13:11:31;;;;;;;8.63;5.77;;;;;;;;;;5060920;28;20576;-66
2021/01/18 13:13:57;;;;;;;9.17;4.53;;;;;;;;;;5054035;28;20787;-66
2021/01/18 13:16:24;;;;;;;5.63;4.70;;;;;;;;;;5060593;28;20449;-65
2021/01/18 13:18:51;;;;;;;11.60;6.23;;;;;;;;;;5061026;28;20461;-67
2021/01/18 13:21:18;;;;;;;9.30;5.30;;;;;;;;;;5062498;28;20461;-66
2021/01/18 13:23:44;;;;;;;7.27;4.50;;;;;;;;;;5059773;28;20456;-66
2021/01/18 13:26:12;;;;;;;19.63;5.27;;;;;;;;;;5062541;28;20568;-66
2021/01/18 13:28:41;;;;;;;7.87;4.50;;;;;;;;;;5061965;28;20453;-66
2021/01/18 13:31:08;;;;;;;7.23;5.13;;;;;;;;;;5063045;28;21097;-66
2021/01/18 13:33:35;;;;;;;9.80;6.27;;;;;;;;;;5057731;28;20450;-66
2021/01/18 13:36:01;;;;;;;8.10;4.90;;;;;;;;;;5055534;28;20980;-69
2021/01/18 13:38:28;;;;;;;6.97;4.50;;;;;;;;;;5057093;28;20453;-70
2021/01/18 13:40:55;;;;;;;7.53;5.03;;;;;;;;;;5061486;28;21113;-71
2021/01/18 13:43:21;;;;;;;12.53;5.17;;;;;;;;;;5062062;28;20453;-69
2021/01/18 13:45:49;;;;;;;16.73;4.60;;;;;;;;;;5061521;28;20481;-69
2021/01/18 13:48:15;;;;;;;11.60;4.30;;;;;;;;;;5065414;28;20456;-68
2021/01/18 13:50:42;;;;;;;8.50;4.33;;;;;;;;;;5057671;28;20482;-68
2021/01/18 13:53:08;;;;;;;10.83;4.73;;;;;;;;;;5064701;28;20448;-68
2021/01/18 13:55:35;;;;;;;8.00;4.47;;;;;;;;;;5064292;28;20451;-69
2021/01/18 13:58:02;;;;;;;7.80;5.70;;;;;;;;;;5054787;28;20862;-68
2021/01/18 14:00:28;;;;;;;8.57;4.70;;;;;;;;;;5063283;28;20465;-68
2021/01/18 14:02:56;;;;;;;7.90;4.70;;;;;;;;;;5058640;28;20445;-68
2021/01/18 14:05:22;;;;;;;9.30;4.67;;;;;;;;;;5058507;28;20468;-69
2021/01/18 14:07:49;;;;;;;5.70;4.33;;;;;;;;;;5055653;28;20471;-69
2021/01/18 14:10:16;;;;;;;5.50;3.87;;;;;;;;;;5060258;28;20473;-68
2021/01/18 14:12:46;;;;;;;5.50;4.30;;;;;;;;;;5060779;28;20515;-68
2021/01/18 14:15:12;;;;;;;9.63;4.70;;;;;;;;;;5063690;28;20938;-69
2021/01/18 14:17:39;;;;;;;7.20;3.90;;;;;;;;;;5063865;28;20445;-68
2021/01/18 14:20:07;;;;;;;5.50;3.63;;;;;;;;;;5050640;28;20572;-68
2021/01/18 14:22:34;;;;;;;4.43;3.40;;;;;;;;;;5054017;28;20449;-69
2021/01/18 14:25:01;;;;;;;5.90;4.43;;;;;;;;;;5051094;28;20453;-68
2021/01/18 14:27:27;;;;;;;8.60;4.23;;;;;;;;;;5057641;28;20477;-70
2021/01/18 14:29:54;;;;;;;6.27;4.73;;;;;;;;;;5057953;28;20461;-69
2021/01/18 14:32:21;;;;;;;6.90;4.07;;;;;;;;;;5055167;28;20449;-69
2021/01/18 14:34:48;;;;;;;9.33;4.73;;;;;;;;;;5055553;28;20491;-70
2021/01/18 14:37:15;;;;;;;7.53;4.93;;;;;;;;;;5061031;28;20449;-69
2021/01/18 14:39:42;;;;;;;6.20;5.07;;;;;;;;;;5061986;28;20468;-69
2021/01/18 14:42:08;;;;;;;7.77;5.07;;;;;;;;;;5058569;28;20471;-69
2021/01/18 14:44:35;;;;;;;9.53;5.30;;;;;;;;;;5061292;28;20449;-69
2021/01/18 14:47:07;;;;;;;8.90;7.17;;;;;;;;;;5061382;28;20476;-69
2021/01/18 14:49:34;;;;;;;11.30;6.27;;;;;;;;;;5060827;28;20576;-70